Terminal Aerodrome Forecast
Issued by NWS Wakefield, VA

Home | Current Version | Previous Version | Text Only | Print | Product List | Glossary On
Versions: 1 2 3 4 5 6 7 8 9 10 11 12 13 14 15 16 17 18 19
154
FTUS41 KAKQ 220540
TAFRIC
TAF
KRIC 220540Z 2206/2306 19004KT P6SM SCT200
     FM221500 21011KT P6SM SCT050
     FM222300 20007KT P6SM SCT250=

USA.gov is the U.S. government's official web portal to all federal, state and local government web resources and services.